createdAt,value
2017-04-26T00:01:09.219Z,1005.79
2017-04-26T00:02:20.454Z,1005.83
2017-04-26T00:03:31.471Z,1005.84
2017-04-26T00:04:42.758Z,1005.86
2017-04-26T00:05:53.783Z,1005.81
2017-04-26T00:07:04.805Z,1005.82
2017-04-26T00:08:15.827Z,1005.85
2017-04-26T00:09:26.855Z,1005.82
2017-04-26T00:10:38.100Z,1005.83
2017-04-26T00:11:49.119Z,1005.85
2017-04-26T00:13:00.167Z,1005.83
2017-04-26T00:14:11.205Z,1005.76
2017-04-26T00:15:22.291Z,1005.77
2017-04-26T00:16:33.328Z,1005.71
2017-04-26T00:17:44.368Z,1005.7
2017-04-26T00:18:55.417Z,1005.7
2017-04-26T00:20:06.649Z,1005.7
2017-04-26T00:21:17.687Z,1005.7
2017-04-26T00:22:28.714Z,1005.69
2017-04-26T00:23:40.143Z,1005.75
2017-04-26T00:24:51.180Z,1005.7
2017-04-26T00:26:02.457Z,1005.73
2017-04-26T00:27:13.491Z,1005.68
2017-04-26T00:28:24.528Z,1005.68
2017-04-26T00:29:35.564Z,1005.67
2017-04-26T00:30:46.797Z,1005.76
2017-04-26T00:31:58.021Z,1005.71
2017-04-26T00:33:09.051Z,1005.72
2017-04-26T00:34:20.144Z,1005.68
2017-04-26T00:35:31.173Z,1005.64
2017-04-26T00:36:42.218Z,1005.66
2017-04-26T00:37:53.245Z,1005.69
2017-04-26T00:39:04.286Z,1005.71
2017-04-26T00:40:15.330Z,1005.74
2017-04-26T00:41:26.360Z,1005.73
2017-04-26T00:42:37.388Z,1005.75
2017-04-26T00:43:48.462Z,1005.76
2017-04-26T00:44:59.496Z,1005.75
2017-04-26T00:46:10.728Z,1005.8
2017-04-26T00:47:21.753Z,1005.78
2017-04-26T00:48:32.782Z,1005.76
2017-04-26T00:49:43.832Z,1005.75
2017-04-26T00:50:54.848Z,1005.75
2017-04-26T00:52:06.075Z,1005.72
2017-04-26T00:53:17.362Z,1005.78
2017-04-26T00:54:28.392Z,1005.8
2017-04-26T00:55:39.424Z,1005.78
2017-04-26T00:56:50.657Z,1005.84
2017-04-26T00:58:02.281Z,1005.84
2017-04-26T00:59:13.305Z,1005.8
2017-04-26T01:00:24.336Z,1005.79
2017-04-26T01:01:35.357Z,1005.78
2017-04-26T01:02:46.401Z,1005.81
2017-04-26T01:03:57.464Z,1005.8
2017-04-26T01:05:08.690Z,1005.83
2017-04-26T01:06:19.721Z,1005.86
2017-04-26T01:07:30.737Z,1005.86
2017-04-26T01:08:41.773Z,1005.88
2017-04-26T01:09:52.853Z,1005.88
2017-04-26T01:11:03.884Z,1005.88
2017-04-26T01:12:14.920Z,1005.82
2017-04-26T01:13:25.950Z,1005.79
2017-04-26T01:14:37.177Z,1005.79
2017-04-26T01:15:48.227Z,1005.77
2017-04-26T01:16:59.465Z,1005.76
2017-04-26T01:18:10.504Z,1005.74
2017-04-26T01:19:21.547Z,1005.78
2017-04-26T01:20:32.787Z,1005.78
2017-04-26T01:21:43.845Z,1005.76
2017-04-26T01:22:54.885Z,1005.78
2017-04-26T01:24:05.905Z,1005.81
2017-04-26T01:25:16.937Z,1005.81
2017-04-26T01:26:28.024Z,1005.83
2017-04-26T01:27:39.043Z,1005.8
2017-04-26T01:28:50.284Z,1005.8
2017-04-26T01:30:01.316Z,1005.78
2017-04-26T01:31:12.554Z,1005.79
2017-04-26T01:32:23.575Z,1005.81
2017-04-26T01:33:34.612Z,1005.79
2017-04-26T01:34:45.647Z,1005.81
2017-04-26T01:35:56.735Z,1005.84
2017-04-26T01:37:07.757Z,1005.81
2017-04-26T01:38:18.799Z,1005.82
2017-04-26T01:39:29.836Z,1005.82
2017-04-26T01:40:40.864Z,1005.82
2017-04-26T01:41:52.097Z,1005.88
2017-04-26T01:43:03.124Z,1005.85
2017-04-26T01:44:14.151Z,1005.88
2017-04-26T01:45:25.198Z,1005.85
2017-04-26T01:46:36.277Z,1005.86
2017-04-26T01:47:47.303Z,1005.85
2017-04-26T01:48:58.346Z,1005.86
2017-04-26T01:50:09.377Z,1005.84
2017-04-26T01:51:20.401Z,1005.82
2017-04-26T01:52:31.623Z,1005.86
2017-04-26T01:53:42.654Z,1005.85
2017-04-26T01:54:53.885Z,1005.88
2017-04-26T01:56:04.924Z,1005.91
2017-04-26T01:57:15.949Z,1005.89
2017-04-26T01:58:27.182Z,1005.91
2017-04-26T01:59:38.423Z,1005.9
2017-04-26T02:00:49.457Z,1005.92
2017-04-26T02:02:00.487Z,1005.94
2017-04-26T02:03:11.513Z,1005.97
2017-04-26T02:04:22.747Z,1005.98
2017-04-26T02:05:33.775Z,1005.98
2017-04-26T02:06:44.806Z,1006.03
2017-04-26T02:07:55.841Z,1006.05
2017-04-26T02:09:06.914Z,1006.01
2017-04-26T02:10:18.349Z,1006.03
2017-04-26T02:11:29.377Z,1005.96
2017-04-26T02:12:40.608Z,1006.03
2017-04-26T02:13:51.641Z,1006.01
2017-04-26T02:15:02.686Z,1006.04
2017-04-26T02:16:13.920Z,1006.05
2017-04-26T02:17:24.959Z,1006.05
2017-04-26T02:18:36.050Z,1006.05
2017-04-26T02:19:47.091Z,1006.06
2017-04-26T02:20:58.123Z,1006.04
2017-04-26T02:22:09.141Z,1006.07
2017-04-26T02:23:20.175Z,1006.01
2017-04-26T02:24:31.278Z,1006.02
2017-04-26T02:25:42.304Z,1006
2017-04-26T02:26:53.328Z,1005.95
2017-04-26T02:28:04.348Z,1005.91
2017-04-26T02:29:15.422Z,1005.95
2017-04-26T02:30:26.439Z,1005.95
2017-04-26T02:31:37.461Z,1005.92
2017-04-26T02:32:48.466Z,1005.96
2017-04-26T02:33:59.492Z,1005.93
2017-04-26T02:35:10.554Z,1005.96
2017-04-26T02:36:21.573Z,1005.94
2017-04-26T02:37:32.591Z,1005.96
2017-04-26T02:38:43.815Z,1005.96
2017-04-26T02:39:55.038Z,1005.98
2017-04-26T02:41:06.065Z,1005.92
2017-04-26T02:42:17.082Z,1005.96
2017-04-26T02:43:28.110Z,1005.93
2017-04-26T02:44:39.141Z,1005.9
2017-04-26T02:45:50.155Z,1005.95
2017-04-26T02:47:01.221Z,1005.94
2017-04-26T02:48:12.235Z,1005.96
2017-04-26T02:49:23.466Z,1005.99
2017-04-26T02:50:34.492Z,1005.95
2017-04-26T02:51:45.509Z,1005.98
2017-04-26T02:52:56.582Z,1005.98
2017-04-26T02:54:07.606Z,1005.98
2017-04-26T02:55:18.828Z,1006
2017-04-26T02:56:30.054Z,1006.05
2017-04-26T02:57:41.322Z,1006.02
2017-04-26T02:58:52.350Z,1005.96
2017-04-26T03:00:03.371Z,1006
2017-04-26T03:01:14.384Z,1005.98
2017-04-26T03:02:25.468Z,1005.94
2017-04-26T03:03:36.481Z,1005.96
2017-04-26T03:04:47.520Z,1005.96
2017-04-26T03:05:58.748Z,1005.95
2017-04-26T03:07:09.771Z,1005.99
2017-04-26T03:08:20.797Z,1005.98
2017-04-26T03:09:31.836Z,1005.96
2017-04-26T03:10:43.072Z,1005.98
2017-04-26T03:11:54.097Z,1005.91
2017-04-26T03:13:05.184Z,1005.97
2017-04-26T03:14:16.254Z,1005.89
2017-04-26T03:15:27.294Z,1005.92
2017-04-26T03:16:38.531Z,1005.91
2017-04-26T03:17:49.570Z,1005.91
2017-04-26T03:19:00.648Z,1005.92
2017-04-26T03:20:11.674Z,1005.93
2017-04-26T03:21:22.699Z,1005.9
2017-04-26T03:22:33.719Z,1005.87
2017-04-26T03:23:44.747Z,1005.91
2017-04-26T03:24:55.781Z,1005.9
2017-04-26T03:26:06.810Z,1005.9
2017-04-26T03:27:17.835Z,1005.91
2017-04-26T03:28:28.869Z,1005.93
2017-04-26T03:29:39.911Z,1005.94
2017-04-26T03:30:51.185Z,1005.93
2017-04-26T03:32:02.212Z,1005.91
2017-04-26T03:33:13.239Z,1005.87
2017-04-26T03:34:24.269Z,1005.89
2017-04-26T03:35:35.493Z,1005.89
2017-04-26T03:36:46.521Z,1005.84
2017-04-26T03:37:57.556Z,1005.84
2017-04-26T03:39:08.598Z,1005.9
2017-04-26T03:40:19.686Z,1005.9
2017-04-26T03:41:30.711Z,1005.85
2017-04-26T03:42:41.746Z,1005.86
2017-04-26T03:43:52.784Z,1005.87
2017-04-26T03:45:03.828Z,1005.81
2017-04-26T03:46:14.853Z,1005.86
2017-04-26T03:47:26.279Z,1005.84
2017-04-26T03:48:37.304Z,1005.8
2017-04-26T03:49:48.534Z,1005.8
2017-04-26T03:50:59.816Z,1005.82
2017-04-26T03:52:10.852Z,1005.85
2017-04-26T03:53:21.878Z,1005.82
2017-04-26T03:54:32.903Z,1005.78
2017-04-26T03:55:43.928Z,1005.82
2017-04-26T03:56:54.963Z,1005.84
2017-04-26T03:58:05.978Z,1005.83
2017-04-26T03:59:17.204Z,1005.92
2017-04-26T04:00:28.845Z,1005.89
2017-04-26T04:01:39.909Z,1005.89
2017-04-26T04:02:50.942Z,1005.94
2017-04-26T04:04:01.963Z,1005.95
2017-04-26T04:05:12.995Z,1005.93
2017-04-26T04:06:24.034Z,1005.96
2017-04-26T04:07:35.264Z,1005.95
2017-04-26T04:08:46.302Z,1005.97
2017-04-26T04:09:57.326Z,1005.93
2017-04-26T04:11:08.356Z,1005.95
2017-04-26T04:12:19.579Z,1006
2017-04-26T04:13:30.668Z,1005.99
2017-04-26T04:14:41.711Z,1005.95
2017-04-26T04:15:52.739Z,1005.92
2017-04-26T04:17:03.761Z,1005.93
2017-04-26T04:18:14.803Z,1005.97
2017-04-26T04:19:25.830Z,1005.93
2017-04-26T04:20:36.857Z,1005.95
2017-04-26T04:21:47.881Z,1005.97
2017-04-26T04:22:58.958Z,1005.95
2017-04-26T04:24:09.987Z,1005.9
2017-04-26T04:25:21.023Z,1005.92
2017-04-26T04:26:32.051Z,1005.93
2017-04-26T04:27:43.076Z,1005.93
2017-04-26T04:28:54.104Z,1005.94
2017-04-26T04:30:05.129Z,1006
2017-04-26T04:31:16.184Z,1005.97
2017-04-26T04:32:27.212Z,1005.99
2017-04-26T04:33:38.292Z,1005.97
2017-04-26T04:34:49.314Z,1005.98
2017-04-26T04:36:00.526Z,1005.97
2017-04-26T04:37:11.543Z,1005.99
2017-04-26T04:38:22.567Z,1005.98
2017-04-26T04:39:33.800Z,1006
2017-04-26T04:40:45.044Z,1006.01
2017-04-26T04:41:56.266Z,1006.03
2017-04-26T04:43:07.499Z,1006.05
2017-04-26T04:44:18.569Z,1006.08
2017-04-26T04:45:29.603Z,1006.1
2017-04-26T04:46:40.829Z,1006.14
2017-04-26T04:47:51.859Z,1006.11
2017-04-26T04:49:02.898Z,1006.17
2017-04-26T04:50:13.947Z,1006.19
2017-04-26T04:51:24.970Z,1006.21
2017-04-26T04:52:36.005Z,1006.25
2017-04-26T04:53:47.034Z,1006.27
2017-04-26T04:54:58.280Z,1006.24
2017-04-26T04:56:09.356Z,1006.28
2017-04-26T04:57:20.378Z,1006.25
2017-04-26T04:58:31.397Z,1006.3
2017-04-26T04:59:42.415Z,1006.33
2017-04-26T05:00:53.444Z,1006.36
2017-04-26T05:02:04.459Z,1006.32
2017-04-26T05:03:15.487Z,1006.34
2017-04-26T05:04:26.519Z,1006.35
2017-04-26T05:05:37.809Z,1006.39
2017-04-26T05:06:49.027Z,1006.41
2017-04-26T05:08:00.055Z,1006.44
2017-04-26T05:09:11.080Z,1006.44
2017-04-26T05:10:22.317Z,1006.44
2017-04-26T05:11:33.345Z,1006.49
2017-04-26T05:12:44.388Z,1006.49
2017-04-26T05:13:55.416Z,1006.49
2017-04-26T05:15:06.427Z,1006.45
2017-04-26T05:16:17.498Z,1006.52
2017-04-26T05:17:28.936Z,1006.57
2017-04-26T05:18:39.966Z,1006.59
2017-04-26T05:19:51.001Z,1006.65
2017-04-26T05:21:02.027Z,1006.6
2017-04-26T05:22:13.242Z,1006.58
2017-04-26T05:23:24.265Z,1006.61
2017-04-26T05:24:35.697Z,1006.66
2017-04-26T05:25:46.930Z,1006.61
2017-04-26T05:26:58.213Z,1006.66
2017-04-26T05:28:09.442Z,1006.69
2017-04-26T05:29:20.675Z,1006.67
2017-04-26T05:30:31.702Z,1006.65
2017-04-26T05:31:42.937Z,1006.61
2017-04-26T05:32:53.966Z,1006.62
2017-04-26T05:34:05.001Z,1006.63
2017-04-26T05:35:16.027Z,1006.63
2017-04-26T05:36:27.055Z,1006.63
2017-04-26T05:37:38.076Z,1006.69
2017-04-26T05:38:49.159Z,1006.65
2017-04-26T05:40:00.175Z,1006.66
2017-04-26T05:41:11.195Z,1006.67
2017-04-26T05:42:22.432Z,1006.66
2017-04-26T05:43:33.465Z,1006.69
2017-04-26T05:44:44.490Z,1006.69
2017-04-26T05:45:55.718Z,1006.68
2017-04-26T05:47:06.743Z,1006.68
2017-04-26T05:48:18.032Z,1006.7
2017-04-26T05:49:29.057Z,1006.7
2017-04-26T05:50:40.285Z,1006.63
2017-04-26T05:51:51.309Z,1006.68
2017-04-26T05:53:02.539Z,1006.67
2017-04-26T05:54:13.768Z,1006.72
2017-04-26T05:55:24.795Z,1006.74
2017-04-26T05:56:35.814Z,1006.78
2017-04-26T05:57:46.836Z,1006.76
2017-04-26T05:58:57.910Z,1006.71
2017-04-26T06:00:08.940Z,1006.77
2017-04-26T06:01:20.162Z,1006.77
2017-04-26T06:02:31.195Z,1006.81
2017-04-26T06:03:42.228Z,1006.81
2017-04-26T06:04:53.296Z,1006.81
2017-04-26T06:06:04.527Z,1006.85
2017-04-26T06:07:15.552Z,1006.83
2017-04-26T06:08:26.577Z,1006.85
2017-04-26T06:09:37.817Z,1006.77
2017-04-26T06:10:48.840Z,1006.81
2017-04-26T06:11:59.870Z,1006.86
2017-04-26T06:13:10.902Z,1006.91
2017-04-26T06:14:22.176Z,1006.86
2017-04-26T06:15:33.222Z,1006.88
2017-04-26T06:16:44.645Z,1006.88
2017-04-26T06:17:55.675Z,1006.88
2017-04-26T06:19:06.749Z,1006.96
2017-04-26T06:20:18.026Z,1006.95
2017-04-26T06:21:29.255Z,1006.93
2017-04-26T06:22:40.281Z,1006.94
2017-04-26T06:23:51.311Z,1006.99
2017-04-26T06:25:02.563Z,1007.03
2017-04-26T06:26:13.646Z,1006.98
2017-04-26T06:27:24.665Z,1006.97
2017-04-26T06:28:35.693Z,1007.03
2017-04-26T06:29:46.730Z,1007.05
2017-04-26T06:30:57.764Z,1007.22
2017-04-26T06:32:08.799Z,1007.05
2017-04-26T06:33:19.830Z,1007.39
2017-04-26T06:34:30.855Z,1006.97
2017-04-26T06:35:42.141Z,1006.94
2017-04-26T06:36:53.168Z,1006.96
2017-04-26T06:38:04.201Z,1006.97
2017-04-26T06:39:15.232Z,1006.98
2017-04-26T06:40:26.469Z,1006.97
2017-04-26T06:41:37.498Z,1006.99
2017-04-26T06:42:48.524Z,1006.99
2017-04-26T06:43:59.766Z,1006.98
2017-04-26T06:45:10.804Z,1007.01
2017-04-26T06:46:21.878Z,1007.04
2017-04-26T06:47:32.913Z,1007.05
2017-04-26T06:48:43.945Z,1007.05
2017-04-26T06:49:54.970Z,1007.07
2017-04-26T06:51:05.999Z,1007.05
2017-04-26T06:52:17.035Z,1007.08
2017-04-26T06:53:28.061Z,1007.08
2017-04-26T06:54:39.079Z,1007.12
2017-04-26T06:55:50.107Z,1007.19
2017-04-26T06:57:01.144Z,1007.18
2017-04-26T06:58:12.176Z,1007.23
2017-04-26T06:59:23.219Z,1007.24
2017-04-26T07:00:34.251Z,1007.24
2017-04-26T07:01:45.272Z,1007.27
2017-04-26T07:02:56.498Z,1007.34
2017-04-26T07:04:07.580Z,1007.34
2017-04-26T07:05:18.810Z,1007.32
2017-04-26T07:06:30.028Z,1007.3
2017-04-26T07:07:41.256Z,1007.26
2017-04-26T07:08:52.290Z,1007.28
2017-04-26T07:10:03.331Z,1007.25
2017-04-26T07:11:14.365Z,1007.26
2017-04-26T07:12:25.594Z,1007.25
2017-04-26T07:13:36.659Z,1007.23
2017-04-26T07:14:47.687Z,1007.26
2017-04-26T07:15:58.917Z,1007.24
2017-04-26T07:17:10.165Z,1007.2
2017-04-26T07:18:21.195Z,1007.15
2017-04-26T07:19:32.261Z,1007.16
2017-04-26T07:20:43.292Z,1007.11
2017-04-26T07:21:54.332Z,1007.09
2017-04-26T07:23:05.364Z,1007.14
2017-04-26T07:24:16.447Z,1007.14
2017-04-26T07:25:27.495Z,1007.2
2017-04-26T07:26:38.526Z,1007.24
2017-04-26T07:27:49.554Z,1007.26
2017-04-26T07:29:00.585Z,1007.31
2017-04-26T07:30:11.637Z,1007.33
2017-04-26T07:31:22.883Z,1007.34
2017-04-26T07:32:33.911Z,1007.39
2017-04-26T07:33:44.938Z,1007.3
2017-04-26T07:34:55.960Z,1007.31
2017-04-26T07:36:07.042Z,1007.3
2017-04-26T07:37:18.058Z,1007.28
2017-04-26T07:38:29.078Z,1007.26
2017-04-26T07:39:40.110Z,1007.26
2017-04-26T07:40:51.344Z,1007.21
2017-04-26T07:42:02.575Z,1007.24
2017-04-26T07:43:13.621Z,1007.23
2017-04-26T07:44:24.659Z,1007.22
2017-04-26T07:45:35.736Z,1007.28
2017-04-26T07:46:46.777Z,1007.34
2017-04-26T07:47:57.806Z,1007.28
2017-04-26T07:49:08.831Z,1007.25
2017-04-26T07:50:19.873Z,1007.25
2017-04-26T07:51:30.899Z,1007.28
2017-04-26T07:52:41.939Z,1007.32
2017-04-26T07:53:52.973Z,1007.36
2017-04-26T07:55:03.998Z,1007.37
2017-04-26T07:56:15.069Z,1007.49
2017-04-26T07:57:26.107Z,1007.52
2017-04-26T07:58:37.143Z,1007.53
2017-04-26T07:59:48.171Z,1007.57
2017-04-26T08:00:59.400Z,1007.56
2017-04-26T08:02:10.419Z,1007.58
2017-04-26T08:03:21.451Z,1007.54
2017-04-26T08:04:32.481Z,1007.55
2017-04-26T08:05:43.516Z,1007.55
2017-04-26T08:06:54.797Z,1007.57
2017-04-26T08:08:05.821Z,1007.64
2017-04-26T08:09:16.858Z,1007.64
2017-04-26T08:10:27.890Z,1007.65
2017-04-26T08:11:38.916Z,1007.62
2017-04-26T08:12:49.958Z,1007.65
2017-04-26T08:14:00.990Z,1007.66
2017-04-26T08:15:12.233Z,1007.64
2017-04-26T08:16:23.267Z,1007.63
2017-04-26T08:17:34.296Z,1007.64
2017-04-26T08:18:45.375Z,1007.69
2017-04-26T08:19:56.402Z,1007.71
2017-04-26T08:21:07.436Z,1007.74
2017-04-26T08:22:18.472Z,1007.79
2017-04-26T08:23:29.704Z,1007.9
2017-04-26T08:24:40.740Z,1008.09
2017-04-26T08:25:51.982Z,1007.78
2017-04-26T08:27:03.410Z,1007.89
2017-04-26T08:28:14.496Z,1007.97
2017-04-26T08:29:25.521Z,1008.01
2017-04-26T08:30:36.588Z,1007.83
2017-04-26T08:31:47.625Z,1007.86
2017-04-26T08:32:58.656Z,1007.8
2017-04-26T08:34:09.692Z,1008.11
2017-04-26T08:35:20.733Z,1007.99
2017-04-26T08:36:31.980Z,1008.27
2017-04-26T08:37:43.026Z,1008.55
2017-04-26T08:38:54.319Z,1008.01
2017-04-26T08:40:05.367Z,1008
2017-04-26T08:41:16.399Z,1008.67
2017-04-26T08:42:27.427Z,1008
2017-04-26T08:43:38.478Z,1009.11
2017-04-26T08:44:49.772Z,1007.98
2017-04-26T08:46:00.822Z,1008.01
2017-04-26T08:47:11.864Z,1009.66
2017-04-26T08:48:22.915Z,1008.91
2017-04-26T08:49:33.952Z,1012.49
2017-04-26T08:50:44.985Z,1008.37
2017-04-26T08:51:56.025Z,1009.09
2017-04-26T08:53:07.071Z,1010.29
2017-04-26T08:54:18.114Z,1008.79
2017-04-26T08:55:29.343Z,1010.15
2017-04-26T08:56:40.857Z,1008.21
2017-04-26T08:57:52.108Z,1009.24
2017-04-26T08:59:03.140Z,1007.56
2017-04-26T09:00:14.175Z,1007.56
2017-04-26T09:01:25.211Z,1007.64
2017-04-26T09:02:36.257Z,1007.84
2017-04-26T09:03:47.505Z,1007.71
2017-04-26T09:04:58.551Z,1007.76
2017-04-26T09:06:09.843Z,1009.12
2017-04-26T09:07:20.890Z,1009.77
2017-04-26T09:08:31.936Z,1007.77
2017-04-26T09:09:42.971Z,1007.58
2017-04-26T09:10:54.017Z,1007.53
2017-04-26T09:12:05.058Z,1007.62
2017-04-26T09:13:16.289Z,1007.73
2017-04-26T09:14:27.532Z,1008.19
2017-04-26T09:15:38.573Z,1007.7
2017-04-26T09:16:49.662Z,1007.71
2017-04-26T09:18:00.707Z,1007.7
2017-04-26T09:19:11.755Z,1007.62
2017-04-26T09:20:22.793Z,1007.57
2017-04-26T09:21:33.820Z,1007.61
2017-04-26T09:22:44.912Z,1007.6
2017-04-26T09:23:55.954Z,1007.56
2017-04-26T09:25:06.999Z,1007.53
2017-04-26T09:26:18.028Z,1007.57
2017-04-26T09:27:29.069Z,1007.58
2017-04-26T09:28:40.098Z,1007.67
2017-04-26T09:29:51.161Z,1007.75
2017-04-26T09:31:02.202Z,1007.72
2017-04-26T09:32:13.226Z,1007.73
2017-04-26T09:33:24.266Z,1007.6
2017-04-26T09:34:35.351Z,1007.58
2017-04-26T09:35:46.597Z,1007.59
2017-04-26T09:36:57.627Z,1007.57
2017-04-26T09:38:08.655Z,1007.58
2017-04-26T09:39:19.683Z,1007.63
2017-04-26T09:40:30.706Z,1007.62
2017-04-26T09:41:41.737Z,1007.62
2017-04-26T09:42:52.764Z,1007.66
2017-04-26T09:44:03.848Z,1007.72
2017-04-26T09:45:14.875Z,1007.78
2017-04-26T09:46:25.909Z,1007.79
2017-04-26T09:47:36.938Z,1007.84
2017-04-26T09:48:48.166Z,1007.9
2017-04-26T09:49:59.205Z,1007.84
2017-04-26T09:51:10.234Z,1007.78
2017-04-26T09:52:21.276Z,1007.78
2017-04-26T09:53:32.311Z,1007.79
2017-04-26T09:54:43.597Z,1007.84
2017-04-26T09:55:54.638Z,1007.88
2017-04-26T09:57:05.671Z,1007.95
2017-04-26T09:58:16.925Z,1007.97
2017-04-26T09:59:27.962Z,1007.93
2017-04-26T10:00:39.198Z,1007.9
2017-04-26T10:01:50.238Z,1007.88
2017-04-26T10:03:01.267Z,1007.84
2017-04-26T10:04:12.550Z,1007.87
2017-04-26T10:05:23.777Z,1007.86
2017-04-26T10:06:35.007Z,1007.94
2017-04-26T10:07:46.044Z,1007.99
2017-04-26T10:08:57.078Z,1007.99
2017-04-26T10:10:08.095Z,1008.01
2017-04-26T10:11:19.336Z,1008.01
2017-04-26T10:12:30.372Z,1008.03
2017-04-26T10:13:41.605Z,1008.07
2017-04-26T10:15:21.534Z,1008.1
2017-04-26T10:16:32.570Z,1008.02
2017-04-26T10:17:43.609Z,1007.96
2017-04-26T10:18:54.641Z,1007.94
2017-04-26T10:20:05.676Z,1007.97
2017-04-26T10:21:16.757Z,1007.93
2017-04-26T10:22:27.790Z,1007.89
2017-04-26T10:23:39.227Z,1007.82
2017-04-26T10:24:50.261Z,1007.82
2017-04-26T10:26:01.296Z,1007.81
2017-04-26T10:27:12.338Z,1007.76
2017-04-26T10:28:23.378Z,1007.82
2017-04-26T10:30:09.390Z,1007.82
2017-04-26T10:31:30.957Z,1007.79
2017-04-26T10:32:50.924Z,1007.77
2017-04-26T10:34:02.212Z,1007.8
2017-04-26T10:35:14.718Z,1007.77
2017-04-26T10:36:25.741Z,1007.79
2017-04-26T10:37:36.826Z,1007.76
2017-04-26T10:38:47.846Z,1007.79
2017-04-26T10:39:58.878Z,1007.79
2017-04-26T10:41:10.122Z,1007.8
2017-04-26T10:42:21.205Z,1007.81
2017-04-26T10:43:34.752Z,1007.8
2017-04-26T10:44:46.002Z,1007.8
2017-04-26T10:45:57.041Z,1007.77
2017-04-26T10:47:08.083Z,1007.79
2017-04-26T10:48:19.116Z,1007.84
2017-04-26T10:49:30.347Z,1007.86
2017-04-26T10:50:41.572Z,1007.83
2017-04-26T10:51:52.801Z,1007.82
2017-04-26T10:53:03.852Z,1007.81
2017-04-26T10:54:15.277Z,1007.85
2017-04-26T10:55:26.725Z,1007.84
2017-04-26T10:56:37.748Z,1007.9
2017-04-26T10:57:48.823Z,1007.84
2017-04-26T10:58:59.858Z,1007.83
2017-04-26T11:00:11.129Z,1007.84
2017-04-26T11:01:22.158Z,1007.85
2017-04-26T11:02:33.195Z,1007.93
2017-04-26T11:03:44.231Z,1008
2017-04-26T11:04:55.273Z,1008.18
2017-04-26T11:06:06.305Z,1008.2
2017-04-26T11:07:17.342Z,1008.05
2017-04-26T11:08:28.365Z,1008.01
2017-04-26T11:09:39.461Z,1008.03
2017-04-26T11:10:50.484Z,1008.13
2017-04-26T11:12:01.523Z,1008.09
2017-04-26T11:13:12.560Z,1008.03
2017-04-26T11:14:23.800Z,1007.98
2017-04-26T11:15:35.041Z,1007.89
2017-04-26T11:16:46.080Z,1007.84
2017-04-26T11:17:57.120Z,1007.92
2017-04-26T11:19:08.158Z,1007.84
2017-04-26T11:20:19.256Z,1007.84
2017-04-26T11:21:30.308Z,1007.84
2017-04-26T11:22:41.347Z,1007.87
2017-04-26T11:23:57.326Z,1007.89
2017-04-26T11:25:08.377Z,1007.79
2017-04-26T11:26:19.430Z,1007.82
2017-04-26T11:27:30.687Z,1007.85
2017-04-26T11:28:41.731Z,1007.85
2017-04-26T11:29:52.777Z,1007.97
2017-04-26T11:31:04.213Z,1007.97
2017-04-26T11:32:15.259Z,1008.04
2017-04-26T11:33:26.711Z,1007.91
2017-04-26T11:34:38.151Z,1007.95
2017-04-26T11:35:49.200Z,1007.98
2017-04-26T11:37:00.493Z,1008.05
2017-04-26T11:38:11.535Z,1008.01
2017-04-26T11:39:22.572Z,1008.01
2017-04-26T11:40:33.611Z,1008.02
2017-04-26T11:41:44.657Z,1007.98
2017-04-26T11:42:55.706Z,1008.01
2017-04-26T11:44:06.748Z,1007.97
2017-04-26T11:45:17.789Z,1008.08
2017-04-26T11:46:28.885Z,1008.08
2017-04-26T11:47:39.932Z,1008.1
2017-04-26T11:48:50.983Z,1008.11
2017-04-26T11:50:02.013Z,1008.09
2017-04-26T11:51:13.051Z,1008.12
2017-04-26T11:52:24.091Z,1008.07
2017-04-26T11:53:35.138Z,1007.96
2017-04-26T11:54:46.173Z,1007.96
2017-04-26T11:55:57.214Z,1007.94
2017-04-26T11:57:08.510Z,1007.88
2017-04-26T11:58:19.547Z,1007.86
2017-04-26T11:59:30.595Z,1007.9
2017-04-26T12:00:41.627Z,1007.86
2017-04-26T12:01:52.876Z,1007.89
2017-04-26T12:03:03.964Z,1007.82
2017-04-26T12:04:15.001Z,1007.82
2017-04-26T12:05:26.048Z,1007.8
2017-04-26T12:06:37.085Z,1007.76
2017-04-26T12:07:48.336Z,1007.74
2017-04-26T12:08:59.379Z,1007.79
2017-04-26T12:10:10.413Z,1007.8
2017-04-26T12:11:21.448Z,1007.83
2017-04-26T12:12:32.679Z,1007.8
2017-04-26T12:13:43.713Z,1007.82
2017-04-26T12:14:54.999Z,1007.81
2017-04-26T12:16:06.039Z,1007.85
2017-04-26T12:17:17.080Z,1007.82
2017-04-26T12:18:28.115Z,1007.82
2017-04-26T12:19:39.348Z,1007.86
2017-04-26T12:20:50.593Z,1007.87
2017-04-26T12:22:01.634Z,1007.87
2017-04-26T12:23:12.666Z,1007.94
2017-04-26T12:24:23.758Z,1007.9
2017-04-26T12:25:34.987Z,1007.9
2017-04-26T12:26:46.017Z,1007.96
2017-04-26T12:27:57.258Z,1007.94
2017-04-26T12:29:08.284Z,1008.01
2017-04-26T12:30:19.318Z,1008.02
2017-04-26T12:31:30.346Z,1008.04
2017-04-26T12:32:41.381Z,1008.05
2017-04-26T12:33:52.610Z,1008.12
2017-04-26T12:35:03.887Z,1008.16
2017-04-26T12:36:14.932Z,1008.15
2017-04-26T12:37:26.176Z,1008.2
2017-04-26T12:38:37.212Z,1008.19
2017-04-26T12:39:48.246Z,1008.19
2017-04-26T12:40:59.338Z,1008.16
2017-04-26T12:42:10.375Z,1008.21
2017-04-26T12:43:21.405Z,1008.18
2017-04-26T12:44:32.431Z,1008.15
2017-04-26T12:45:43.487Z,1008.19
2017-04-26T12:46:54.524Z,1008.18
2017-04-26T12:48:05.760Z,1008.23
2017-04-26T12:49:16.795Z,1008.18
2017-04-26T12:50:27.841Z,1008.14
2017-04-26T12:51:38.876Z,1008.21
2017-04-26T12:52:49.965Z,1008.2
2017-04-26T12:54:00.989Z,1008.18
2017-04-26T12:55:12.025Z,1008.19
2017-04-26T12:56:23.262Z,1008.12
2017-04-26T12:57:34.296Z,1008.09
2017-04-26T12:58:45.330Z,1008.01
2017-04-26T12:59:56.565Z,1008.02
2017-04-26T13:01:07.595Z,1007.95
2017-04-26T13:02:18.922Z,1007.91
2017-04-26T13:03:29.972Z,1007.89
2017-04-26T13:04:41.014Z,1007.85
2017-04-26T13:05:52.063Z,1007.83
2017-04-26T13:07:03.307Z,1007.79
2017-04-26T13:08:14.555Z,1007.78
2017-04-26T13:09:25.597Z,1007.76
2017-04-26T13:10:37.027Z,1007.74
2017-04-26T13:11:48.062Z,1007.75
2017-04-26T13:12:59.147Z,1007.75
2017-04-26T13:14:10.178Z,1007.76
2017-04-26T13:15:21.207Z,1007.73
2017-04-26T13:16:32.257Z,1007.75
2017-04-26T13:17:43.293Z,1007.76
2017-04-26T13:18:54.377Z,1007.76
2017-04-26T13:20:05.418Z,1007.75
2017-04-26T13:21:16.456Z,1007.79
2017-04-26T13:22:27.495Z,1007.78
2017-04-26T13:23:38.532Z,1007.77
2017-04-26T13:24:49.571Z,1007.75
2017-04-26T13:26:01.008Z,1007.81
2017-04-26T13:27:12.247Z,1007.85
2017-04-26T13:28:23.295Z,1007.84
2017-04-26T13:29:34.519Z,1007.87
2017-04-26T13:30:45.620Z,1007.86
2017-04-26T13:31:56.664Z,1007.85
2017-04-26T13:33:07.692Z,1007.85
2017-04-26T13:34:18.735Z,1007.85
2017-04-26T13:35:29.780Z,1007.85
2017-04-26T13:36:41.023Z,1007.9
2017-04-26T13:37:52.056Z,1007.94
2017-04-26T13:39:03.097Z,1007.96
2017-04-26T13:40:14.385Z,1007.92
2017-04-26T13:41:25.414Z,1007.94
2017-04-26T13:42:36.455Z,1007.95
2017-04-26T13:43:47.507Z,1007.88
2017-04-26T13:44:58.543Z,1007.9
2017-04-26T13:46:09.587Z,1007.91
2017-04-26T13:47:20.633Z,1007.91
2017-04-26T13:48:31.868Z,1007.89
2017-04-26T13:49:43.096Z,1007.88
2017-04-26T13:50:54.173Z,1007.88
2017-04-26T13:52:05.213Z,1007.85
2017-04-26T13:53:16.245Z,1007.76
2017-04-26T13:54:27.485Z,1007.76
2017-04-26T13:55:38.517Z,1007.8
2017-04-26T13:56:49.794Z,1007.91
2017-04-26T13:58:00.842Z,1007.95
2017-04-26T13:59:11.916Z,1007.99
2017-04-26T14:00:22.956Z,1008
2017-04-26T14:01:33.991Z,1008.01
2017-04-26T14:02:45.033Z,1008.03
2017-04-26T14:03:56.077Z,1008
2017-04-26T14:05:07.115Z,1007.97
2017-04-26T14:06:18.146Z,1008
2017-04-26T14:07:29.380Z,1008.02
2017-04-26T14:08:40.464Z,1008.07
2017-04-26T14:09:51.497Z,1008.01
2017-04-26T14:11:02.726Z,1008.05
2017-04-26T14:12:13.763Z,1008.06
2017-04-26T14:13:24.999Z,1008.11
2017-04-26T14:14:36.061Z,1008.11
2017-04-26T14:15:47.306Z,1008.08
2017-04-26T14:16:58.549Z,1008.1
2017-04-26T14:18:09.636Z,1008.04
2017-04-26T14:19:20.668Z,1008.09
2017-04-26T14:20:31.703Z,1008.06
2017-04-26T14:21:42.754Z,1008.03
2017-04-26T14:22:53.988Z,1008.17
2017-04-26T14:24:05.012Z,1008.11
2017-04-26T14:25:16.040Z,1008.12